עמוד ראשי
METAR-TAF:

METAR-TAF

שדות תעופה :

סלוניקי, יוון

נמל התעופה הבינלאומי סלוניקי מקדוניה

קו רוחב: 40-31N, קו אורך: 022-58E, גובה: 8מטר

תצפית מזג אוויר נוכחית

הדו"ח נערך לפני 39דקות, בשעה 11:20 UTC
רוח 7קשר מכיוון מערב
טמפרטורת 34 צלסיוס
לחות 20%
לחץ 1014 hPa
ראות 10 קילומטר או יותר
מעט עננים בגובה 3000רגל

METAR: LGTS 231120Z 26007KT 9999 FEW030 34/08 Q1014 NOSIG

זמן: 14:59 (11:59 UTC)

תחזית

הדו"ח נערך לפני 59דקות, בשעה 11:00 UTC
תחזית בתוקף מ 23 ב 12 UTC עד 24 ב 12 UTC
רוח 12קשר מכיוון דרום
ראות 10 קילומטר או יותר
מעט עננים בגובה 2500רגל
יעשה מ
23 ב 20 UTC עד 23 ב 22 UTC
רוח 3קשר עם כיוונים משתנים
יעשה מ
24 ב 04 UTC עד 24 ב 06 UTC
רוח 12קשר מכיוון צפון/צפון-מערב

TAF: LGTS 231100Z 2312/2412 19012KT 9999 FEW025 BECMG 2320/2322 VRB03KT BECMG 2404/2406 34012KT

תצפיות ותחזיות מזג אוויר לגבי יותר מ- 4,000 שדות תעופה ברחבי העולם. דוחות METAR ו- TAF.

התחנות הזמינות מסומנות בנקודות צהובות ואדומות על גבי המפה.

העבר את העכבר לנקודה הצבעונית על מנת לראות את שם התחנה.

לאחר מכן, לחץ כדי לראות את תוכן ואת תחזיות מזג האוויר.

כדי לשנות את המפה: לחץ על הכפתורים הירוקים עם הפלוס השחור כדי להתקרב; על הכפתור הירוק עם המקף כדי להתרחק; או בחיצים הירוקים למפות סמוכות.


METAR-TAF: